Jago, Mississippi
Current Conditions -  °F | °C
As of 7:54 PM on Wednesday 22 Oct 2014 (Local Time) from KMEM Reporting Station
Clear Clear  
Wind Chill: 16°   Ceiling: Unl
Heat Index: 16°   Visibility: 10mi
Dew Point:   Wind: 5mph
Humidity: 53%   Direction: 60°ENE
Pressure: 30.18"   Gusts: NA
Location:  34.9498°N, 90.0305°W
Report Text: KMEM 230054Z 06004KT 10SM CLR 16/06 A3018 RMK AO2 SLP219 T01560061
Loading
Personal Weather Stations






























Interactive Weather Map
Tropical Storm Tracking
New forecast layout! Learn more

10-Day Weather Forecast

Advertisements
Track Severe Weather on mobile